In Rescue
 
Open Full Screen Window  High Contrast Mode
Wind Gusting 12 knots
07
March 01, 2024 3:15 PM EST
Weather Information
Wind Direction
  200 °
Wind Speed
  07 kt (8 mph)
Wind Gust
  12 kt (14 mph)
Variable Wind
170°
230°
Altimeter
30.53 in
Visibility
10 SM
Temperature
09° C
48° F
Dewpoint
-07° C
19° F
Humidity
32%
Sky Condition
Clear
VFR

METAR KUKT 012015Z AUTO 20007G12KT 170V230 10SM CLR 09/M07 A3053 RMK AO2

FAA Disclaimer: The data displayed is for advisory purposes only and is not to be used for flight planning or operations.